Flight Track Log - Related Links

Times and Time Zones

All times are in EST time to prevent confusion due to time zone crossing. See the EJM826 flight status page for this flight to view local times or setup timezone preferences in your user account.

Time Position Orientation Groundspeed Altitude Reporting Facility
EST Latitude Longitude Course Direction KTS MPH feet Rate Location/Type
Sat 11:11:12 AM 30.1153 -97.7181 323° Northwest 220 253 4,700  Level Fort Worth Center
Sat 11:12:10 AM 30.1619 -97.7867 308° West 260 299 7,100 2,450 Climbing Houston Center
Sat 11:13:12 AM 30.2311 -97.8356 329° Northwest 283 326 9,600 2,496 Climbing Houston Center
Sat 11:14:15 AM 30.3058 -97.9014 323° Northwest 296 341 12,300 2,448 Climbing Houston Center
Sat 11:15:00 AM 30.2869 -97.7518 323° Northwest  Level Estimated
Sat 11:15:17 AM 30.3683 -97.9564 323° Northwest 309 356 14,700  Level Houston Center
Sat 11:16:00 AM 30.3793 -97.8338 323° Northwest  Level Estimated
Sat 11:16:19 AM 30.4525 -98.0292 323° Northwest 318 366 17,300  Level Houston Center
Sat 11:17:21 AM 30.5261 -98.0942 323° Northwest 326 375 18,900 1,694 Climbing Houston Center
Sat 11:18:23 AM 30.6039 -98.1625 323° Northwest 341 392 20,800 1,839 Climbing Houston Center
Sat 11:19:25 AM 30.6844 -98.2331 323° Northwest 355 409 22,700 1,790 Climbing Houston Center
Sat 11:20:27 AM 30.7689 -98.3033 324° Northwest 366 421 24,500 1,887 Climbing Houston Center
Sat 11:21:29 AM 30.8519 -98.3769 323° Northwest 371 427 26,600 1,597 Climbing Houston Center
Sat 11:22:31 AM 30.9336 -98.4550 321° Northwest 374 430 27,800 1,152 Climbing Houston Center
Sat 11:23:34 AM 31.0208 -98.5344 322° Northwest 389 448 29,000 1,248 Climbing Houston Center
Sat 11:24:36 AM 31.1286 -98.6286 323° Northwest 406 467 30,400 1,258 Climbing Houston Center
Sat 11:25:38 AM 31.2225 -98.7133 322° Northwest 416 479 31,600 1,113 Climbing Houston Center
Sat 11:26:40 AM 31.3183 -98.7989 323° Northwest 426 490 32,700 1,161 Climbing Houston Center
Sat 11:27:42 AM 31.4144 -98.8856 322° Northwest 431 496 34,000 1,355 Climbing Houston Center
Sat 11:28:44 AM 31.5083 -98.9700 323° Northwest 423 487 35,500 1,113 Climbing Houston Center
Sat 11:29:46 AM 31.5994 -99.0536 322° Northwest 414 476 36,300 803 Climbing Houston Center
Sat 11:30:51 AM 31.6986 -99.1444 322° Northwest 410 472 37,200 756 Climbing Fort Worth Center
Sat 11:31:53 AM 31.7906 -99.2269 323° Northwest 415 478 37,900 581 Climbing Fort Worth Center
Sat 11:32:55 AM 31.8808 -99.3100 322° Northwest 411 473 38,400 677 Climbing Fort Worth Center
Sat 11:33:57 AM 31.9897 -99.4075 323° Northwest 408 470 39,300 677 Climbing Fort Worth Center
Sat 11:34:59 AM 32.0783 -99.4906 322° Northwest 406 467 39,800 339 Climbing Fort Worth Center
Sat 11:36:01 AM 32.1672 -99.5719 322° Northwest 405 466 40,000 96 Climbing Fort Worth Center
Sat 11:37:04 AM 32.2508 -99.6672 316° Northwest 413 475 40,000  Level Fort Worth Center
Sat 11:38:06 AM 32.3386 -99.7650 317° Northwest 423 487 40,000  Level Fort Worth Center
Sat 11:39:08 AM 32.4233 -99.8647 315° West 431 496 40,000  Level Fort Worth Center
Sat 11:40:10 AM 32.5111 -99.9667 316° Northwest 435 501 40,000  Level Fort Worth Center
Sat 11:41:13 AM 32.6036 -100.0703 317° Northwest 442 509 40,000  Level Fort Worth Center
Sat 11:42:14 AM 32.6942 -100.1742 316° Northwest 445 512 40,000  Level Fort Worth Center
Sat 11:43:16 AM 32.8019 -100.2989 316° Northwest 447 514 40,000  Level Fort Worth Center
Sat 11:44:18 AM 32.8928 -100.4036 316° Northwest 451 519 40,000  Level Fort Worth Center
Sat 11:45:20 AM 32.9825 -100.5086 316° Northwest 451 519 40,000  Level Fort Worth Center
Sat 11:46:22 AM 33.0706 -100.6139 315° West 448 516 40,000  Level Fort Worth Center
Sat 11:47:24 AM 33.1614 -100.7189 316° Northwest 454 522 40,000  Level Fort Worth Center
Sat 11:48:26 AM 33.2508 -100.8239 316° Northwest 449 517 40,000  Level Fort Worth Center
Sat 11:49:28 AM 33.3575 -100.9528 315° West 452 520 40,000  Level Fort Worth Center
Sat 11:50:30 AM 33.4475 -101.0583 316° Northwest 454 522 40,000  Level Fort Worth Center
Sat 11:51:33 AM 33.5367 -101.1639 315° West 451 519 40,000  Level Fort Worth Center
Sat 11:52:35 AM 33.6258 -101.2711 315° West 453 521 40,000  Level Fort Worth Center
Sat 11:53:37 AM 33.7219 -101.3822 316° Northwest 454 522 40,000  Level Fort Worth Center
Sat 11:54:39 AM 33.8158 -101.4953 315° West 453 521 40,000  Level Fort Worth Center
Sat 11:55:41 AM 33.9111 -101.6108 315° West 454 522 40,000  Level Fort Worth Center
Sat 11:56:43 AM 33.9878 -101.7022 315° West 455 524 40,000  Level Fort Worth Center
Sat 11:57:45 AM 34.0986 -101.8375 315° West 457 526 40,000  Level Fort Worth Center
Sat 11:58:21 AM 34.1339 -101.8761 318° Northwest 456 525 40,000  Level Albuquerque Center
Sat 11:59:23 AM 34.2406 -102.0075 314° West 457 526 40,000  Level Albuquerque Center
Sat 12:00:25 PM 34.3297 -102.1172 315° West 457 526 40,000  Level Albuquerque Center
Sat 12:01:27 PM 34.4169 -102.2244 315° West 450 518 40,000  Level Albuquerque Center
Sat 12:02:29 PM 34.5036 -102.3311 315° West 445 512 40,000  Level Albuquerque Center
Sat 12:03:31 PM 34.5892 -102.4369 314° West 440 506 40,000  Level Albuquerque Center
Sat 12:04:33 PM 34.6753 -102.5419 315° West 439 505 40,000  Level Albuquerque Center
Sat 12:05:35 PM 34.7600 -102.6475 314° West 436 502 40,000  Level Albuquerque Center
Sat 12:06:37 PM 34.8614 -102.7736 314° West 429 494 40,000  Level Albuquerque Center
Sat 12:07:38 PM 34.9458 -102.8792 314° West 431 496 40,000  Level Albuquerque Center
Sat 12:08:40 PM 35.0300 -102.9847 314° West 431 496 40,000  Level Albuquerque Center
Sat 12:09:42 PM 35.1153 -103.0897 315° West 431 496 40,000  Level Albuquerque Center
Sat 12:10:44 PM 35.1997 -103.1961 314° West 432 497 40,000  Level Albuquerque Center
Sat 12:11:46 PM 35.2836 -103.3033 314° West 433 498 40,000  Level Albuquerque Center
Sat 12:12:48 PM 35.3683 -103.4106 314° West 434 499 40,000  Level Albuquerque Center
Sat 12:13:50 PM 35.4667 -103.5367 314° West 436 502 40,000  Level Albuquerque Center
Sat 12:14:52 PM 35.5517 -103.6447 314° West 438 504 40,000  Level Albuquerque Center
Sat 12:15:54 PM 35.6369 -103.7531 314° West 439 505 40,000  Level Albuquerque Center
Sat 12:16:56 PM 35.7217 -103.8631 314° West 440 506 40,000  Level Albuquerque Center
Sat 12:17:58 PM 35.8067 -103.9742 313° West 442 509 40,000  Level Albuquerque Center
Sat 12:19:01 PM 35.8911 -104.0833 314° West 440 506 40,000  Level Albuquerque Center
Sat 12:20:03 PM 35.9892 -104.2100 314° West 436 502 40,000  Level Albuquerque Center
Sat 12:21:05 PM 36.0725 -104.3181 314° West 433 498 40,000  Level Albuquerque Center
Sat 12:22:07 PM 36.1558 -104.4256 314° West 431 496 40,000  Level Albuquerque Center
Sat 12:23:09 PM 36.2389 -104.5353 313° West 432 497 40,000  Level Albuquerque Center
Sat 12:24:11 PM 36.3219 -104.6450 313° West 433 498 40,000  Level Albuquerque Center
Sat 12:25:13 PM 36.4053 -104.7542 314° West 432 497 40,000  Level Albuquerque Center
Sat 12:26:15 PM 36.5047 -104.8786 315° West 434 499 40,000  Level Albuquerque Center
Sat 12:27:17 PM 36.6092 -104.9567 329° Northwest 436 502 40,000  Level Albuquerque Center
Sat 12:28:19 PM 36.7192 -105.0378 329° Northwest 434 499 40,000  Level Albuquerque Center
Sat 12:29:21 PM 36.8183 -105.1128 329° Northwest 433 498 40,000  Level Albuquerque Center
Sat 12:30:23 PM 36.9189 -105.1872 329° Northwest 435 501 40,000  Level Albuquerque Center
Sat 12:31:25 PM 37.0347 -105.2747 329° Northwest 435 501 40,000 -1,051 Level Albuquerque Center
Sat 12:34:57 PM 37.4022 -105.5556 328° Northwest 429 494 35,200 -1,314 Descending Denver Center
Sat 12:35:59 PM 37.4972 -105.6286 329° Northwest 422 486 34,000 -1,065 Descending Denver Center
Sat 12:37:01 PM 37.6131 -105.7169 329° Northwest 437 503 33,000 -484 Descending Denver Center
Sat 12:38:03 PM 37.7175 -105.7969 329° Northwest 451 519 33,000 -919 Level Denver Center
Sat 12:39:05 PM 37.8394 -105.8917 328° Northwest 458 527 31,100 -1,742 Descending Denver Center
Sat 12:40:00 PM 37.8470 -105.8906 328° Northwest  Level FlightAware Approximate
Sat 12:40:07 PM 37.9447 -105.9717 329° Northwest 460 529 29,400  Level Denver Center
Sat 12:41:00 PM 37.9454 -105.9693 328° Northwest  Level FlightAware Approximate
Sat 12:41:09 PM 38.0631 -106.0653 328° Northwest 451 519 27,300  Level Denver Center
Sat 12:42:12 PM 38.1653 -106.1425 329° Northwest 446 513 27,000 -1,200 Descending Denver Center
Sat 12:43:14 PM 38.2767 -106.2322 328° Northwest 438 504 24,800 -1,984 Descending Denver Center
Sat 12:44:16 PM 38.3822 -106.3164 328° Northwest 446 513 22,900 -1,839 Descending Denver Center
Sat 12:45:18 PM 38.4942 -106.3853 334° Northwest 446 513 21,000 -1,403 Descending Denver Center
Sat 12:46:20 PM 38.6033 -106.4417 338° Northwest 437 503 20,000 -726 Descending Denver Center
Sat 12:47:22 PM 38.7050 -106.4961 337° Northwest 401 461 19,500 -1,016 Descending Denver Center
Sat 12:48:24 PM 38.8256 -106.5600 338° Northwest 392 451 17,900 -1,258 Descending Denver Center
Sat 12:49:26 PM 38.9222 -106.6122 337° Northwest 382 440 16,900 -532 Descending Denver Center
Sat 12:50:28 PM 38.9997 -106.6542 337° Northwest 323 372 16,800 -48 Descending Denver Center
Sat 12:51:30 PM 39.0650 -106.6881 338° Northwest 277 319 16,800 -435 Level Denver Center
Sat 12:52:32 PM 39.1431 -106.7128 346° North 262 302 15,900 -432 Descending Denver Center
Sat 12:53:35 PM 39.2072 -106.7181 356° North 254 292 15,900  Level Denver Center
Sat 12:54:37 PM 39.2806 -106.7253 356° North 261 300 15,900  Level Denver Center
Sat 12:55:51 PM 39.3689 -106.7342 356° North 266 306 15,900 132 Level Denver Center
Sat 12:56:53 PM 39.4456 -106.7408 356° North 266 306 16,200 145 Climbing Denver Center
Sat 12:57:55 PM 39.5114 -106.7897 330° Northwest 242 278 16,200  Level Denver Center
Sat 12:58:57 PM 39.5747 -106.8464 325° Northwest 244 281 16,200 -48 Level Denver Center
Sat 01:00:01 PM 39.6358 -106.9092 322° Northwest 253 291 16,100 -48 Descending Denver Center
Sat 01:01:03 PM 39.6417 -106.9931 275° West 247 284 16,100  Level Denver Center
Sat 01:02:05 PM 39.5861 -107.0719 228° Southwest 260 299 16,100  Level Denver Center
Sat 01:03:07 PM 39.5236 -107.0931 195° South 285 328 16,100 -48 Level Denver Center
Sat 01:04:09 PM 39.4728 -107.0211 132° Southeast 282 325 16,000 -1,016 Descending Denver Center
Sat 01:05:11 PM 39.4236 -106.9708 142° Southeast 231 266 14,000 -2,112 Descending Denver Center
Sat 01:06:14 PM 39.3683 -106.9397 156° South 206 237 11,600 -1,872 Descending Denver Center
Sat 01:07:16 PM 39.3208 -106.9161 159° South 194 223 10,100 -1,258 Descending Denver Center
Sat 01:08:18 PM 39.2789 -106.8972 161° South 178 205 9,000 -1,065 Descending Denver Center

Login

Don't have an account? Register now (free) for customized features, flight alerts, and more!